createdAt,value
2022-08-21T00:00:42.379Z,10.43
2022-08-21T00:01:46.651Z,10.13
2022-08-21T00:02:58.771Z,9.88
2022-08-21T00:04:06.185Z,6.18
2022-08-21T00:05:08.494Z,4.97
2022-08-21T00:06:14.076Z,8.40
2022-08-21T00:07:16.788Z,6.68
2022-08-21T00:08:20.825Z,6.72
2022-08-21T00:09:23.093Z,4.25
2022-08-21T00:10:26.753Z,4.78
2022-08-21T00:11:29.172Z,9.55
2022-08-21T00:12:32.138Z,6.47
2022-08-21T00:13:35.357Z,8.32
2022-08-21T00:14:38.183Z,7.25
2022-08-21T00:15:41.197Z,9.52
2022-08-21T00:16:44.524Z,7.85
2022-08-21T00:17:46.871Z,6.65
2022-08-21T00:18:50.028Z,8.23
2022-08-21T00:19:52.237Z,7.07
2022-08-21T00:20:54.538Z,11.35
2022-08-21T00:21:57.131Z,8.60
2022-08-21T00:22:59.526Z,8.93
2022-08-21T00:24:02.232Z,12.13
2022-08-21T00:25:07.339Z,6.88
2022-08-21T00:26:09.662Z,8.18
2022-08-21T00:27:11.862Z,5.93
2022-08-21T00:28:14.946Z,5.65
2022-08-21T00:29:18.602Z,8.48
2022-08-21T00:30:23.325Z,5.85
2022-08-21T00:31:26.097Z,9.35
2022-08-21T00:32:29.237Z,6.90
2022-08-21T00:33:32.399Z,4.82
2022-08-21T00:34:34.613Z,5.90
2022-08-21T00:35:39.030Z,6.63
2022-08-21T00:36:41.663Z,6.65
2022-08-21T00:37:44.381Z,8.00
2022-08-21T00:38:46.608Z,6.82
2022-08-21T00:39:49.553Z,5.05
2022-08-21T00:41:00.311Z,6.28
2022-08-21T00:42:22.457Z,6.22
2022-08-21T00:43:29.866Z,6.65
2022-08-21T00:44:32.103Z,8.73
2022-08-21T00:45:34.712Z,7.03
2022-08-21T00:46:37.489Z,4.55
2022-08-21T00:47:39.803Z,5.65
2022-08-21T00:48:43.364Z,6.30
2022-08-21T00:49:45.813Z,6.88
2022-08-21T00:50:57.881Z,5.43
2022-08-21T00:52:01.965Z,9.48
2022-08-21T00:53:08.824Z,11.15
2022-08-21T00:54:18.736Z,7.00
2022-08-21T00:55:23.536Z,7.25
2022-08-21T00:56:26.546Z,6.90
2022-08-21T00:57:33.530Z,7.28
2022-08-21T00:58:40.445Z,6.78
2022-08-21T00:59:49.544Z,7.68
2022-08-21T01:00:52.078Z,9.90
2022-08-21T01:01:54.455Z,6.82
2022-08-21T01:02:59.231Z,5.68
2022-08-21T01:04:02.462Z,7.07
2022-08-21T01:05:05.503Z,6.78
2022-08-21T01:06:09.728Z,10.02
2022-08-21T01:07:12.120Z,8.30
2022-08-21T01:08:17.327Z,9.70
2022-08-21T01:09:19.986Z,14.75
2022-08-21T01:10:23.973Z,9.05
2022-08-21T01:11:27.073Z,5.10
2022-08-21T01:12:29.727Z,8.85
2022-08-21T01:13:37.070Z,8.55
2022-08-21T01:14:41.326Z,6.47
2022-08-21T01:15:47.316Z,8.20
2022-08-21T01:16:53.483Z,8.05
2022-08-21T01:17:55.724Z,10.27
2022-08-21T01:18:57.920Z,9.57
2022-08-21T01:20:01.195Z,8.07
2022-08-21T01:21:06.212Z,8.10
2022-08-21T01:22:09.014Z,6.22
2022-08-21T01:23:11.619Z,11.32
2022-08-21T01:24:14.380Z,5.28
2022-08-21T01:25:23.191Z,5.18
2022-08-21T01:26:34.258Z,10.38
2022-08-21T01:27:37.246Z,8.80
2022-08-21T01:28:44.854Z,6.47
2022-08-21T01:29:51.711Z,5.75
2022-08-21T01:30:55.210Z,5.20
2022-08-21T01:31:58.821Z,6.30
2022-08-21T01:33:01.017Z,6.75
2022-08-21T01:34:03.269Z,7.32
2022-08-21T01:35:06.975Z,8.95
2022-08-21T01:36:09.246Z,4.53
2022-08-21T01:37:12.768Z,6.10
2022-08-21T01:38:15.365Z,5.13
2022-08-21T01:39:18.018Z,6.13
2022-08-21T01:40:20.445Z,8.40
2022-08-21T01:41:22.803Z,8.00
2022-08-21T01:42:25.009Z,6.57
2022-08-21T01:43:35.619Z,6.07
2022-08-21T01:44:42.419Z,7.60
2022-08-21T01:45:44.750Z,6.55
2022-08-21T01:46:46.971Z,6.38
2022-08-21T01:47:49.226Z,6.15
2022-08-21T01:48:51.662Z,5.72
2022-08-21T01:49:54.033Z,4.70
2022-08-21T01:50:57.107Z,11.55
2022-08-21T01:51:59.319Z,7.53
2022-08-21T01:53:01.565Z,6.80
2022-08-21T01:54:03.996Z,7.88
2022-08-21T01:55:09.367Z,7.95
2022-08-21T01:56:15.291Z,6.30
2022-08-21T01:57:17.525Z,6.20
2022-08-21T01:58:19.927Z,6.70
2022-08-21T01:59:23.837Z,7.03
2022-08-21T02:00:26.659Z,5.00
2022-08-21T02:01:28.876Z,7.15
2022-08-21T02:02:31.105Z,7.45
2022-08-21T02:03:35.657Z,4.53
2022-08-21T02:04:38.478Z,4.72
2022-08-21T02:05:40.691Z,7.72
2022-08-21T02:06:43.790Z,7.25
2022-08-21T02:07:49.471Z,6.47
2022-08-21T02:08:52.146Z,8.38
2022-08-21T02:09:54.403Z,6.82
2022-08-21T02:10:58.267Z,9.23
2022-08-21T02:12:00.753Z,7.10
2022-08-21T02:13:03.363Z,5.28
2022-08-21T02:14:05.581Z,13.15
2022-08-21T02:15:10.189Z,6.95
2022-08-21T02:16:17.303Z,7.82
2022-08-21T02:17:22.399Z,5.45
2022-08-21T02:18:24.604Z,5.50
2022-08-21T02:19:26.920Z,4.50
2022-08-21T02:20:45.509Z,7.05
2022-08-21T02:21:47.682Z,7.00
2022-08-21T02:22:50.573Z,4.00
2022-08-21T02:23:52.783Z,7.00
2022-08-21T02:24:55.411Z,4.75
2022-08-21T02:25:59.130Z,5.25
2022-08-21T02:27:02.005Z,5.00
2022-08-21T02:28:08.144Z,6.50
2022-08-21T02:29:10.305Z,6.20
2022-08-21T02:30:20.972Z,4.68
2022-08-21T02:31:23.166Z,6.05
2022-08-21T02:32:26.750Z,5.65
2022-08-21T02:33:30.022Z,5.28
2022-08-21T02:34:32.211Z,8.45
2022-08-21T02:35:34.998Z,9.40
2022-08-21T02:36:37.239Z,6.78
2022-08-21T02:37:48.171Z,5.57
2022-08-21T02:38:50.555Z,8.90
2022-08-21T02:39:53.116Z,7.05
2022-08-21T02:40:56.314Z,7.40
2022-08-21T02:41:58.541Z,7.35
2022-08-21T02:43:03.826Z,8.57
2022-08-21T02:44:06.077Z,3.78
2022-08-21T02:45:08.917Z,4.30
2022-08-21T02:46:13.089Z,4.63
2022-08-21T02:47:15.663Z,4.32
2022-08-21T02:48:21.694Z,5.43
2022-08-21T02:49:23.901Z,5.40
2022-08-21T02:50:38.465Z,4.93
2022-08-21T02:51:41.047Z,8.25
2022-08-21T02:52:43.223Z,6.32
2022-08-21T02:53:46.164Z,7.75
2022-08-21T02:54:48.613Z,8.82
2022-08-21T02:55:52.565Z,7.68
2022-08-21T02:56:54.751Z,4.55
2022-08-21T02:57:59.220Z,5.03
2022-08-21T02:59:01.439Z,6.18
2022-08-21T03:00:06.426Z,4.53
2022-08-21T03:01:12.016Z,7.32
2022-08-21T03:02:15.710Z,5.57
2022-08-21T03:03:18.352Z,7.18
2022-08-21T03:04:20.902Z,5.10
2022-08-21T03:05:24.181Z,3.53
2022-08-21T03:06:26.423Z,5.68
2022-08-21T03:07:28.659Z,5.95
2022-08-21T03:08:30.832Z,6.45
2022-08-21T03:09:33.011Z,6.30
2022-08-21T03:10:35.214Z,6.40
2022-08-21T03:11:37.544Z,8.43
2022-08-21T03:12:39.843Z,4.13
2022-08-21T03:13:42.910Z,5.95
2022-08-21T03:14:45.091Z,8.60
2022-08-21T03:15:48.124Z,5.90
2022-08-21T03:16:51.614Z,7.10
2022-08-21T03:17:55.505Z,7.13
2022-08-21T03:18:57.877Z,7.80
2022-08-21T03:20:00.520Z,4.15
2022-08-21T03:21:03.345Z,5.53
2022-08-21T03:22:06.290Z,8.85
2022-08-21T03:23:13.250Z,7.60
2022-08-21T03:24:17.663Z,6.60
2022-08-21T03:25:39.721Z,7.03
2022-08-21T03:26:43.024Z,7.10
2022-08-21T03:27:45.794Z,3.13
2022-08-21T03:28:49.844Z,5.97
2022-08-21T03:29:52.033Z,6.47
2022-08-21T03:30:54.340Z,6.82
2022-08-21T03:31:56.520Z,4.85
2022-08-21T03:32:59.962Z,6.63
2022-08-21T03:34:02.131Z,6.72
2022-08-21T03:35:05.731Z,5.60
2022-08-21T03:36:09.124Z,4.75
2022-08-21T03:37:11.780Z,3.63
2022-08-21T03:38:14.214Z,5.38
2022-08-21T03:39:17.927Z,11.35
2022-08-21T03:40:21.519Z,8.55
2022-08-21T03:41:23.734Z,4.80
2022-08-21T03:42:25.959Z,6.20
2022-08-21T03:43:32.164Z,8.30
2022-08-21T03:44:35.616Z,8.57
2022-08-21T03:45:39.187Z,5.63
2022-08-21T03:46:41.918Z,4.88
2022-08-21T03:48:01.753Z,8.80
2022-08-21T03:49:04.040Z,9.40
2022-08-21T03:50:07.025Z,5.00
2022-08-21T03:51:09.847Z,9.48
2022-08-21T03:52:12.083Z,8.25
2022-08-21T03:53:17.669Z,6.72
2022-08-21T03:54:20.121Z,5.35
2022-08-21T03:55:22.837Z,7.25
2022-08-21T03:56:24.995Z,4.78
2022-08-21T03:57:27.177Z,6.90
2022-08-21T03:58:30.069Z,9.15
2022-08-21T03:59:32.237Z,5.88
2022-08-21T04:00:35.176Z,3.85
2022-08-21T04:01:37.500Z,9.65
2022-08-21T04:02:41.248Z,6.97
2022-08-21T04:03:43.571Z,9.95
2022-08-21T04:04:45.806Z,9.45
2022-08-21T04:05:48.177Z,8.15
2022-08-21T04:06:50.807Z,11.27
2022-08-21T04:07:52.950Z,6.13
2022-08-21T04:08:55.959Z,12.48
2022-08-21T04:09:58.499Z,11.32
2022-08-21T04:11:01.690Z,7.80
2022-08-21T04:12:04.615Z,8.05
2022-08-21T04:13:08.215Z,8.07
2022-08-21T04:14:10.576Z,5.43
2022-08-21T04:15:13.623Z,6.07
2022-08-21T04:16:15.798Z,10.90
2022-08-21T04:17:18.931Z,9.02
2022-08-21T04:18:21.562Z,8.73
2022-08-21T04:19:24.284Z,11.07
2022-08-21T04:20:27.229Z,6.60
2022-08-21T04:21:30.208Z,6.88
2022-08-21T04:22:32.368Z,9.55
2022-08-21T04:23:35.127Z,10.32
2022-08-21T04:24:37.581Z,12.38
2022-08-21T04:25:39.857Z,11.10
2022-08-21T04:26:42.046Z,9.50
2022-08-21T04:27:44.217Z,13.00
2022-08-21T04:28:46.513Z,11.45
2022-08-21T04:29:48.795Z,8.30
2022-08-21T04:30:53.001Z,10.50
2022-08-21T04:31:55.526Z,8.70
2022-08-21T04:32:59.054Z,9.10
2022-08-21T04:34:01.499Z,13.80
2022-08-21T04:35:07.450Z,12.25
2022-08-21T04:36:09.945Z,9.43
2022-08-21T04:37:12.195Z,8.45
2022-08-21T04:38:14.454Z,7.43
2022-08-21T04:39:16.714Z,9.05
2022-08-21T04:40:22.399Z,8.07
2022-08-21T04:41:27.904Z,8.27
2022-08-21T04:42:30.574Z,9.25
2022-08-21T04:43:33.639Z,12.05
2022-08-21T04:44:35.983Z,11.32
2022-08-21T04:45:43.181Z,9.70
2022-08-21T04:46:45.322Z,11.23
2022-08-21T04:47:53.390Z,8.90
2022-08-21T04:48:56.103Z,10.68
2022-08-21T04:49:58.276Z,9.80
2022-08-21T04:51:03.207Z,13.00
2022-08-21T04:52:06.593Z,12.82
2022-08-21T04:53:16.679Z,7.93
2022-08-21T04:54:22.765Z,7.45
2022-08-21T04:55:28.390Z,9.85
2022-08-21T04:56:35.266Z,10.68
2022-08-21T04:57:48.235Z,10.57
2022-08-21T04:58:53.212Z,12.48
2022-08-21T04:59:55.888Z,8.05
2022-08-21T05:00:59.158Z,12.15
2022-08-21T05:02:02.916Z,9.30
2022-08-21T05:03:08.704Z,9.15
2022-08-21T05:04:14.296Z,6.78
2022-08-21T05:05:17.144Z,7.70
2022-08-21T05:06:20.059Z,8.52
2022-08-21T05:07:41.582Z,11.73
2022-08-21T05:08:48.050Z,9.48
2022-08-21T05:09:51.218Z,9.57
2022-08-21T05:10:58.233Z,11.38
2022-08-21T05:12:03.808Z,8.88
2022-08-21T05:13:08.005Z,13.00
2022-08-21T05:14:12.214Z,12.20
2022-08-21T05:15:15.172Z,8.43
2022-08-21T05:16:30.328Z,10.30
2022-08-21T05:17:41.036Z,9.35
2022-08-21T05:18:44.158Z,10.60
2022-08-21T05:19:46.405Z,9.82
2022-08-21T05:20:48.685Z,7.50
2022-08-21T05:21:51.139Z,8.82
2022-08-21T05:22:53.286Z,14.00
2022-08-21T05:23:55.485Z,11.32
2022-08-21T05:24:58.545Z,13.90
2022-08-21T05:26:02.050Z,8.00
2022-08-21T05:27:05.207Z,8.35
2022-08-21T05:28:07.460Z,10.90
2022-08-21T05:29:13.718Z,13.43
2022-08-21T05:30:15.937Z,8.32
2022-08-21T05:31:18.106Z,10.07
2022-08-21T05:32:20.327Z,10.43
2022-08-21T05:33:22.566Z,10.95
2022-08-21T05:34:25.360Z,10.63
2022-08-21T05:35:29.114Z,11.32
2022-08-21T05:36:31.596Z,10.77
2022-08-21T05:37:34.421Z,12.30
2022-08-21T05:38:36.737Z,11.23
2022-08-21T05:40:04.820Z,15.43
2022-08-21T05:41:01.469Z,18.02
2022-08-21T05:42:03.833Z,9.18
2022-08-21T05:43:06.040Z,17.77
2022-08-21T05:44:10.216Z,11.80
2022-08-21T05:45:12.909Z,11.10
2022-08-21T05:46:15.235Z,11.23
2022-08-21T05:47:17.591Z,14.98
2022-08-21T05:48:24.710Z,18.02
2022-08-21T05:49:26.863Z,11.63
2022-08-21T05:50:33.435Z,10.13
2022-08-21T05:51:36.250Z,15.70
2022-08-21T05:52:38.458Z,11.57
2022-08-21T05:53:43.133Z,12.07
2022-08-21T05:54:45.397Z,14.02
2022-08-21T05:55:48.324Z,15.02
2022-08-21T05:56:50.512Z,11.13
2022-08-21T05:57:53.274Z,13.95
2022-08-21T05:58:56.571Z,11.65
2022-08-21T05:59:58.890Z,16.13
2022-08-21T06:01:03.339Z,10.98
2022-08-21T06:02:05.995Z,12.90
2022-08-21T06:03:18.504Z,10.93
2022-08-21T06:04:20.850Z,13.27
2022-08-21T06:05:25.125Z,16.13
2022-08-21T06:06:39.858Z,14.10
2022-08-21T06:07:42.328Z,16.20
2022-08-21T06:08:44.732Z,12.35
2022-08-21T06:09:46.895Z,9.93
2022-08-21T06:10:51.204Z,14.00
2022-08-21T06:11:53.853Z,16.08
2022-08-21T06:12:56.353Z,11.05
2022-08-21T06:13:59.543Z,9.20
2022-08-21T06:15:01.785Z,15.32
2022-08-21T06:16:10.517Z,10.93
2022-08-21T06:17:13.513Z,13.93
2022-08-21T06:18:16.207Z,13.60
2022-08-21T06:19:18.397Z,11.27
2022-08-21T06:20:20.745Z,11.85
2022-08-21T06:21:22.969Z,9.77
2022-08-21T06:22:25.177Z,8.32
2022-08-21T06:23:32.980Z,14.88
2022-08-21T06:24:36.774Z,12.55
2022-08-21T06:25:38.973Z,10.07
2022-08-21T06:26:41.169Z,13.35
2022-08-21T06:27:43.390Z,11.93
2022-08-21T06:28:45.572Z,9.25
2022-08-21T06:29:47.733Z,9.55
2022-08-21T06:30:49.966Z,13.50
2022-08-21T06:31:52.661Z,9.73
2022-08-21T06:32:55.126Z,11.60
2022-08-21T06:33:57.570Z,11.48
2022-08-21T06:34:59.839Z,9.27
2022-08-21T06:36:01.985Z,8.15
2022-08-21T06:37:04.487Z,9.38
2022-08-21T06:38:06.648Z,11.95
2022-08-21T06:39:16.268Z,9.68
2022-08-21T06:40:19.108Z,10.70
2022-08-21T06:41:24.325Z,9.43
2022-08-21T06:42:29.118Z,9.40
2022-08-21T06:43:39.455Z,14.55
2022-08-21T06:44:42.830Z,10.85
2022-08-21T06:45:45.201Z,6.70
2022-08-21T06:46:47.548Z,11.85
2022-08-21T06:47:50.521Z,6.03
2022-08-21T06:48:52.857Z,8.07
2022-08-21T06:49:55.237Z,9.90
2022-08-21T06:50:57.871Z,10.45
2022-08-21T06:52:00.072Z,13.85
2022-08-21T06:53:13.259Z,12.82
2022-08-21T06:54:15.388Z,15.40
2022-08-21T06:55:21.045Z,6.07
2022-08-21T06:56:24.026Z,8.77
2022-08-21T06:57:26.629Z,10.77
2022-08-21T06:58:29.250Z,7.18
2022-08-21T06:59:32.759Z,9.77
2022-08-21T07:00:36.254Z,14.30
2022-08-21T07:01:38.592Z,8.70
2022-08-21T07:02:41.551Z,9.77
2022-08-21T07:03:44.506Z,8.93
2022-08-21T07:04:46.671Z,7.38
2022-08-21T07:05:49.167Z,10.00
2022-08-21T07:06:51.758Z,5.20
2022-08-21T07:07:53.953Z,8.93
2022-08-21T07:08:57.962Z,9.65
2022-08-21T07:10:01.416Z,9.50
2022-08-21T07:11:10.187Z,7.88
2022-08-21T07:12:12.455Z,11.95
2022-08-21T07:13:15.545Z,7.63
2022-08-21T07:14:20.209Z,7.28
2022-08-21T07:15:23.146Z,7.20
2022-08-21T07:16:25.668Z,10.55
2022-08-21T07:17:27.876Z,5.80
2022-08-21T07:18:30.094Z,5.82
2022-08-21T07:19:32.288Z,7.35
2022-08-21T07:20:34.885Z,9.52
2022-08-21T07:21:37.582Z,8.13
2022-08-21T07:22:41.259Z,9.35
2022-08-21T07:23:48.553Z,7.72
2022-08-21T07:24:50.839Z,10.70
2022-08-21T07:25:53.394Z,6.88
2022-08-21T07:26:56.005Z,8.80
2022-08-21T07:27:58.430Z,13.65
2022-08-21T07:29:00.636Z,11.88
2022-08-21T07:30:03.605Z,8.98
2022-08-21T07:31:06.914Z,11.45
2022-08-21T07:32:09.145Z,9.80
2022-08-21T07:33:11.475Z,9.05
2022-08-21T07:34:14.504Z,12.75
2022-08-21T07:35:18.458Z,7.18
2022-08-21T07:36:20.966Z,12.27
2022-08-21T07:37:23.231Z,7.90
2022-08-21T07:38:26.164Z,4.97
2022-08-21T07:39:28.305Z,6.05
2022-08-21T07:40:30.473Z,9.70
2022-08-21T07:41:33.028Z,8.15
2022-08-21T07:42:35.511Z,8.38
2022-08-21T07:43:38.670Z,7.50
2022-08-21T07:44:48.207Z,8.02
2022-08-21T07:45:54.907Z,6.80
2022-08-21T07:46:58.198Z,8.32
2022-08-21T07:48:00.480Z,9.13
2022-08-21T07:49:02.730Z,8.30
2022-08-21T07:50:06.772Z,8.77
2022-08-21T07:51:12.178Z,9.13
2022-08-21T07:52:14.457Z,6.60
2022-08-21T07:53:17.298Z,9.98
2022-08-21T07:54:19.554Z,6.47
2022-08-21T07:55:35.906Z,6.75
2022-08-21T07:56:38.218Z,8.63
2022-08-21T07:57:40.922Z,10.88
2022-08-21T07:58:43.111Z,9.15
2022-08-21T07:59:45.334Z,10.30
2022-08-21T08:00:47.509Z,10.25
2022-08-21T08:01:49.736Z,9.07
2022-08-21T08:02:53.095Z,8.38
2022-08-21T08:03:55.989Z,7.60
2022-08-21T08:05:07.720Z,10.43
2022-08-21T08:06:13.197Z,8.77
2022-08-21T08:07:15.418Z,8.52
2022-08-21T08:08:18.076Z,8.65
2022-08-21T08:09:20.759Z,8.18
2022-08-21T08:10:24.067Z,13.02
2022-08-21T08:11:26.264Z,9.35
2022-08-21T08:12:30.607Z,7.80
2022-08-21T08:13:33.305Z,7.38
2022-08-21T08:14:35.480Z,12.57
2022-08-21T08:15:37.809Z,9.65
2022-08-21T08:16:40.027Z,8.45
2022-08-21T08:17:42.204Z,8.18
2022-08-21T08:18:45.315Z,7.55
2022-08-21T08:19:47.481Z,7.45
2022-08-21T08:20:49.685Z,9.85
2022-08-21T08:21:51.884Z,8.38
2022-08-21T08:22:55.313Z,11.05
2022-08-21T08:23:57.526Z,8.15
2022-08-21T08:25:00.628Z,5.70
2022-08-21T08:26:05.410Z,7.75
2022-08-21T08:27:07.580Z,9.30
2022-08-21T08:28:16.995Z,10.60
2022-08-21T08:29:19.863Z,10.00
2022-08-21T08:30:24.613Z,7.07
2022-08-21T08:31:26.818Z,7.95
2022-08-21T08:32:29.014Z,9.30
2022-08-21T08:33:31.308Z,7.68
2022-08-21T08:34:34.023Z,6.88
2022-08-21T08:35:36.933Z,11.38
2022-08-21T08:36:41.431Z,6.07
2022-08-21T08:37:49.073Z,8.00
2022-08-21T08:38:54.973Z,7.93
2022-08-21T08:39:57.168Z,7.03
2022-08-21T08:41:13.851Z,9.90
2022-08-21T08:42:33.024Z,9.68
2022-08-21T08:43:36.890Z,11.45
2022-08-21T08:44:39.115Z,8.85
2022-08-21T08:45:45.842Z,8.57
2022-08-21T08:46:51.159Z,11.80
2022-08-21T08:48:37.196Z,8.15
2022-08-21T08:49:50.815Z,7.95
2022-08-21T08:50:58.443Z,7.15
2022-08-21T08:52:13.170Z,9.95
2022-08-21T08:53:23.108Z,9.23
2022-08-21T08:54:40.485Z,11.73
2022-08-21T08:55:45.067Z,8.00
2022-08-21T08:56:48.580Z,5.90
2022-08-21T08:57:52.335Z,4.05
2022-08-21T08:58:59.825Z,6.18
2022-08-21T09:00:11.382Z,10.23
2022-08-21T09:01:18.647Z,11.20
2022-08-21T09:02:21.913Z,11.85
2022-08-21T09:03:26.385Z,11.50
2022-08-21T09:04:29.998Z,8.10
2022-08-21T09:05:35.119Z,9.23
2022-08-21T09:06:54.893Z,6.55
2022-08-21T09:08:09.477Z,6.15
2022-08-21T09:09:35.124Z,9.40
2022-08-21T09:10:46.525Z,6.93
2022-08-21T09:11:58.353Z,6.63
2022-08-21T09:13:28.357Z,6.35
2022-08-21T09:14:43.424Z,7.53
2022-08-21T09:16:22.831Z,7.13
2022-08-21T09:17:50.130Z,8.48
2022-08-21T09:19:15.381Z,6.80
2022-08-21T09:20:48.282Z,7.18
2022-08-21T09:22:02.963Z,5.85
2022-08-21T09:23:29.901Z,10.38
2022-08-21T09:24:59.251Z,7.68
2022-08-21T09:26:14.909Z,4.57
2022-08-21T09:27:19.464Z,6.32
2022-08-21T09:28:21.623Z,12.05
2022-08-21T09:29:30.461Z,3.75
2022-08-21T09:30:33.728Z,7.10
2022-08-21T09:31:40.370Z,6.88
2022-08-21T09:32:42.962Z,4.70
2022-08-21T09:33:45.107Z,9.18
2022-08-21T09:35:01.434Z,6.82
2022-08-21T09:36:04.786Z,6.55
2022-08-21T09:37:18.590Z,8.05
2022-08-21T09:38:34.012Z,7.05
2022-08-21T09:39:42.605Z,4.75
2022-08-21T09:40:48.825Z,7.07
2022-08-21T09:42:25.023Z,8.75
2022-08-21T09:43:28.174Z,7.50
2022-08-21T09:44:40.135Z,11.40
2022-08-21T09:45:43.918Z,7.85
2022-08-21T09:46:52.725Z,6.95
2022-08-21T09:47:55.023Z,5.50
2022-08-21T09:49:00.571Z,8.52
2022-08-21T09:50:14.751Z,6.45
2022-08-21T09:51:21.556Z,6.10
2022-08-21T09:52:26.322Z,7.32
2022-08-21T09:53:35.516Z,8.18
2022-08-21T09:54:41.172Z,8.85
2022-08-21T09:56:19.075Z,4.78
2022-08-21T09:57:46.515Z,6.28
2022-08-21T09:58:51.306Z,6.75
2022-08-21T09:59:54.146Z,5.70
2022-08-21T10:01:02.872Z,9.02
2022-08-21T10:02:33.101Z,8.13
2022-08-21T10:03:35.426Z,7.30
2022-08-21T10:04:37.891Z,3.67
2022-08-21T10:05:41.501Z,9.80
2022-08-21T10:06:43.752Z,4.25
2022-08-21T10:07:45.931Z,7.22
2022-08-21T10:08:48.178Z,5.05
2022-08-21T10:10:06.989Z,3.38
2022-08-21T10:11:13.085Z,6.55
2022-08-21T10:12:26.843Z,7.50
2022-08-21T10:13:31.722Z,4.55
2022-08-21T10:14:46.110Z,5.65
2022-08-21T10:16:07.236Z,6.18
2022-08-21T10:17:29.843Z,9.50
2022-08-21T10:19:00.542Z,7.50
2022-08-21T10:20:02.678Z,4.38
2022-08-21T10:21:16.754Z,5.28
2022-08-21T10:22:21.662Z,5.97
2022-08-21T10:23:33.077Z,3.95
2022-08-21T10:25:00.994Z,4.70
2022-08-21T10:26:13.094Z,4.20
2022-08-21T10:27:38.570Z,5.00
2022-08-21T10:29:22.416Z,5.05
2022-08-21T10:30:45.676Z,3.15
2022-08-21T10:32:15.669Z,4.18
2022-08-21T10:33:42.298Z,7.00
2022-08-21T10:34:54.895Z,3.53
2022-08-21T10:36:36.629Z,3.88
2022-08-21T10:38:00.077Z,3.92
2022-08-21T10:39:38.182Z,6.65
2022-08-21T10:40:49.859Z,6.00
2022-08-21T10:42:28.356Z,3.38
2022-08-21T10:43:52.924Z,7.28
2022-08-21T10:45:16.402Z,7.20
2022-08-21T10:46:34.888Z,4.20
2022-08-21T10:47:43.206Z,7.05
2022-08-21T10:49:26.522Z,4.55
2022-08-21T10:50:46.403Z,6.40
2022-08-21T10:52:00.687Z,9.43
2022-08-21T10:53:21.139Z,5.35
2022-08-21T10:54:58.769Z,4.65
2022-08-21T10:56:13.337Z,10.23
2022-08-21T10:57:35.880Z,5.05
2022-08-21T11:00:51.539Z,5.38
2022-08-21T11:02:11.128Z,10.05
2022-08-21T11:03:18.559Z,7.40
2022-08-21T11:04:26.508Z,10.27
2022-08-21T11:05:55.698Z,7.63
2022-08-21T11:07:17.359Z,5.38
2022-08-21T11:08:40.089Z,4.55
2022-08-21T11:09:49.931Z,5.80
2022-08-21T11:10:57.843Z,10.05
2022-08-21T11:12:19.054Z,5.45
2022-08-21T11:13:42.887Z,7.50
2022-08-21T11:15:02.984Z,3.00
2022-08-21T11:16:24.999Z,5.63
2022-08-21T11:17:40.144Z,5.80
2022-08-21T11:19:11.896Z,4.82
2022-08-21T11:20:30.714Z,3.83
2022-08-21T11:22:16.878Z,5.68
2022-08-21T11:23:42.645Z,4.68
2022-08-21T11:24:59.448Z,7.63
2022-08-21T11:26:31.525Z,3.95
2022-08-21T11:27:53.737Z,4.65
2022-08-21T11:30:06.682Z,4.07
2022-08-21T11:31:41.036Z,4.22
2022-08-21T11:33:24.773Z,10.82
2022-08-21T11:35:00.088Z,5.82
2022-08-21T11:36:47.022Z,5.25
2022-08-21T11:38:02.235Z,3.92
2022-08-21T11:39:32.752Z,6.85
2022-08-21T11:41:07.397Z,6.97
2022-08-21T11:42:30.434Z,5.88
2022-08-21T11:43:46.298Z,6.88
2022-08-21T11:45:11.549Z,6.90
2022-08-21T11:46:25.993Z,4.60
2022-08-21T11:48:07.889Z,3.45
2022-08-21T11:49:18.853Z,5.13
2022-08-21T11:50:35.227Z,5.93
2022-08-21T11:51:47.799Z,5.68
2022-08-21T11:52:53.701Z,8.75
2022-08-21T11:54:13.736Z,3.25
2022-08-21T11:55:32.554Z,5.65
2022-08-21T11:56:43.466Z,5.53
2022-08-21T11:57:53.213Z,5.53
2022-08-21T11:59:02.117Z,3.55
2022-08-21T12:00:36.099Z,4.55
2022-08-21T12:01:45.746Z,7.85
2022-08-21T12:02:55.918Z,7.65
2022-08-21T12:04:03.086Z,3.92
2022-08-21T12:05:10.177Z,3.25
2022-08-21T12:06:24.103Z,4.30
2022-08-21T12:07:35.336Z,4.80
2022-08-21T12:08:45.489Z,3.15
2022-08-21T12:09:57.186Z,4.10
2022-08-21T12:11:19.066Z,5.00
2022-08-21T12:12:30.322Z,2.60
2022-08-21T12:13:42.140Z,6.75
2022-08-21T12:14:49.245Z,3.28
2022-08-21T12:15:51.971Z,8.18
2022-08-21T12:17:06.540Z,6.88
2022-08-21T12:18:28.858Z,3.45
2022-08-21T12:19:33.126Z,5.72
2022-08-21T12:21:04.040Z,4.18
2022-08-21T12:23:13.093Z,5.93
2022-08-21T12:24:19.978Z,3.15
2022-08-21T12:25:23.364Z,6.47
2022-08-21T12:26:36.901Z,4.82
2022-08-21T12:28:09.200Z,5.28
2022-08-21T12:29:25.976Z,3.85
2022-08-21T12:30:28.331Z,4.18
2022-08-21T12:31:31.749Z,4.05
2022-08-21T12:32:45.770Z,4.93
2022-08-21T12:33:56.444Z,3.97
2022-08-21T12:35:25.091Z,6.00
2022-08-21T12:36:45.780Z,5.10
2022-08-21T12:38:17.116Z,4.63
2022-08-21T12:39:26.203Z,2.07
2022-08-21T12:41:01.417Z,5.22
2022-08-21T12:42:14.439Z,4.20
2022-08-21T12:43:35.743Z,6.75
2022-08-21T12:45:00.661Z,2.95
2022-08-21T12:46:05.368Z,2.80
2022-08-21T12:47:24.322Z,6.57
2022-08-21T12:48:33.246Z,5.15
2022-08-21T12:49:37.621Z,4.38
2022-08-21T12:50:48.866Z,4.25
2022-08-21T12:52:10.624Z,5.00
2022-08-21T12:53:42.370Z,3.55
2022-08-21T12:54:45.535Z,4.25
2022-08-21T12:55:48.232Z,3.10
2022-08-21T12:57:01.321Z,3.38
2022-08-21T12:58:22.881Z,2.83
2022-08-21T12:59:36.663Z,2.67
2022-08-21T13:01:11.853Z,3.53
2022-08-21T13:02:25.692Z,3.47
2022-08-21T13:03:31.164Z,2.85
2022-08-21T13:04:41.987Z,4.35
2022-08-21T13:05:46.660Z,5.00
2022-08-21T13:06:53.322Z,5.68
2022-08-21T13:08:04.292Z,3.38
2022-08-21T13:09:09.748Z,5.75
2022-08-21T13:10:30.928Z,4.32
2022-08-21T13:11:34.252Z,4.03
2022-08-21T13:12:40.265Z,5.53
2022-08-21T13:13:44.731Z,5.80
2022-08-21T13:14:56.373Z,4.65
2022-08-21T13:16:05.218Z,4.88
2022-08-21T13:17:11.564Z,4.38
2022-08-21T13:18:32.937Z,2.22
2022-08-21T13:19:38.485Z,3.92
2022-08-21T13:20:48.815Z,7.05
2022-08-21T13:21:53.326Z,2.80
2022-08-21T13:22:56.100Z,3.83
2022-08-21T13:24:41.208Z,2.75
2022-08-21T13:25:41.775Z,2.88
2022-08-21T13:26:51.581Z,2.25
2022-08-21T13:28:11.744Z,7.20
2022-08-21T13:29:19.431Z,4.57
2022-08-21T13:30:27.664Z,3.65
2022-08-21T13:31:32.630Z,3.88
2022-08-21T13:32:38.841Z,3.30
2022-08-21T13:33:42.411Z,5.07
2022-08-21T13:34:45.182Z,2.35
2022-08-21T13:35:55.696Z,3.85
2022-08-21T13:37:08.870Z,3.17
2022-08-21T13:38:11.114Z,1.67
2022-08-21T13:39:18.114Z,3.92
2022-08-21T13:40:28.733Z,3.53
2022-08-21T13:41:38.342Z,3.42
2022-08-21T13:42:43.727Z,2.90
2022-08-21T13:43:50.970Z,4.65
2022-08-21T13:44:55.050Z,3.47
2022-08-21T13:45:59.264Z,4.25
2022-08-21T13:47:08.068Z,5.47
2022-08-21T13:48:10.711Z,1.10
2022-08-21T13:49:18.179Z,3.78
2022-08-21T13:50:24.112Z,3.15
2022-08-21T13:51:30.078Z,8.25
2022-08-21T13:52:34.492Z,5.88
2022-08-21T13:53:46.356Z,3.53
2022-08-21T13:55:02.387Z,3.00
2022-08-21T13:56:07.045Z,2.90
2022-08-21T13:57:29.392Z,4.78
2022-08-21T13:58:47.911Z,4.38
2022-08-21T13:59:51.530Z,4.38
2022-08-21T14:00:58.471Z,1.92
2022-08-21T14:02:23.657Z,2.83
2022-08-21T14:03:42.611Z,2.65
2022-08-21T14:05:03.262Z,3.05
2022-08-21T14:06:18.062Z,4.25
2022-08-21T14:07:27.468Z,3.47
2022-08-21T14:08:43.485Z,2.85
2022-08-21T14:09:55.009Z,2.22
2022-08-21T14:10:59.378Z,1.35
2022-08-21T14:12:23.097Z,3.65
2022-08-21T14:13:46.223Z,2.92
2022-08-21T14:14:48.493Z,2.30
2022-08-21T14:15:58.074Z,5.40
2022-08-21T14:17:25.392Z,3.60
2022-08-21T14:18:33.506Z,2.92
2022-08-21T14:19:47.783Z,2.92
2022-08-21T14:20:52.290Z,2.95
2022-08-21T14:21:55.632Z,1.98
2022-08-21T14:22:58.383Z,2.97
2022-08-21T14:24:14.763Z,1.77
2022-08-21T14:25:25.407Z,2.40
2022-08-21T14:26:27.685Z,3.25
2022-08-21T14:27:31.969Z,1.67
2022-08-21T14:28:40.763Z,2.35
2022-08-21T14:29:44.345Z,3.60
2022-08-21T14:30:48.275Z,3.38
2022-08-21T14:31:59.165Z,2.60
2022-08-21T14:33:03.181Z,5.70
2022-08-21T14:34:05.498Z,4.80
2022-08-21T14:35:23.524Z,1.83
2022-08-21T14:36:26.052Z,5.90
2022-08-21T14:37:28.280Z,4.57
2022-08-21T14:38:30.889Z,3.58
2022-08-21T14:39:33.548Z,2.75
2022-08-21T14:40:35.762Z,2.65
2022-08-21T14:41:38.323Z,4.13
2022-08-21T14:42:42.427Z,5.40
2022-08-21T14:43:47.434Z,3.03
2022-08-21T14:45:08.672Z,1.55
2022-08-21T14:46:12.841Z,1.88
2022-08-21T14:47:15.091Z,1.73
2022-08-21T14:48:17.270Z,3.50
2022-08-21T14:49:19.441Z,3.40
2022-08-21T14:50:21.794Z,6.47
2022-08-21T14:51:24.231Z,1.65
2022-08-21T14:52:26.403Z,2.55
2022-08-21T14:53:28.561Z,2.58
2022-08-21T14:54:32.993Z,1.90
2022-08-21T14:55:55.316Z,2.25
2022-08-21T14:56:59.827Z,1.80
2022-08-21T14:58:02.014Z,3.83
2022-08-21T14:59:07.769Z,2.15